Pratt, West Virginia
Current Conditions -  °F | °C
As of 2:54 PM on Wednesday 17 Dec 2014 (Local Time) from KCRW Reporting Station
Overcast Overcast  
Wind Chill: 33°   Ceiling: 2500
Heat Index: 38°   Visibility: 10mi
Dew Point: 29°   Wind: 6mph
Humidity: 70%   Direction: NA
Pressure: 30.14"   Gusts: NA
Location:  38.21°N, 81.38°W
Report Text: KCRW 171954Z VRB05KT 10SM FEW013 OVC025 03/M02 A3014 RMK AO2 SLP211 OVC V BKN T00331017
Loading
Personal Weather Stations






























Interactive Weather Map New forecast layout! Learn more

10-Day Weather Forecast

Advertisements
Track Severe Weather on mobile